sensor_id;sensor_type;location;lat;lon;timestamp;temperature;humidity
15131;DHT22;7666;50.920;4.628;2023-03-31T00:00:53;11.90;99.90
15131;DHT22;7666;50.920;4.628;2023-03-31T00:03:42;11.90;99.90
15131;DHT22;7666;50.920;4.628;2023-03-31T00:06:29;11.90;99.90
15131;DHT22;7666;50.920;4.628;2023-03-31T00:09:16;12.00;99.90
15131;DHT22;7666;50.920;4.628;2023-03-31T00:12:03;12.00;99.90
15131;DHT22;7666;50.920;4.628;2023-03-31T00:14:49;12.00;99.90
15131;DHT22;7666;50.920;4.628;2023-03-31T00:17:35;12.00;99.90
15131;DHT22;7666;50.920;4.628;2023-03-31T00:20:21;12.00;99.90
15131;DHT22;7666;50.920;4.628;2023-03-31T00:23:07;12.00;99.90
15131;DHT22;7666;50.920;4.628;2023-03-31T00:25:55;12.00;99.90
15131;DHT22;7666;50.920;4.628;2023-03-31T00:28:41;12.00;99.90
15131;DHT22;7666;50.920;4.628;2023-03-31T00:31:28;12.00;99.90
15131;DHT22;7666;50.920;4.628;2023-03-31T00:34:14;12.00;99.90
15131;DHT22;7666;50.920;4.628;2023-03-31T00:37:00;12.00;99.90
15131;DHT22;7666;50.920;4.628;2023-03-31T00:39:47;12.10;99.90
15131;DHT22;7666;50.920;4.628;2023-03-31T00:42:33;12.10;99.90
15131;DHT22;7666;50.920;4.628;2023-03-31T00:45:27;12.10;99.90
15131;DHT22;7666;50.920;4.628;2023-03-31T00:48:16;12.10;99.90
15131;DHT22;7666;50.920;4.628;2023-03-31T00:51:04;12.10;99.90
15131;DHT22;7666;50.920;4.628;2023-03-31T00:53:58;12.00;99.90
15131;DHT22;7666;50.920;4.628;2023-03-31T00:56:48;12.00;99.90
15131;DHT22;7666;50.920;4.628;2023-03-31T00:59:42;12.00;99.90
15131;DHT22;7666;50.920;4.628;2023-03-31T01:02:28;12.00;99.90
15131;DHT22;7666;50.920;4.628;2023-03-31T01:05:14;11.90;99.90
15131;DHT22;7666;50.920;4.628;2023-03-31T01:08:01;11.90;99.90
15131;DHT22;7666;50.920;4.628;2023-03-31T01:10:50;11.90;99.90
15131;DHT22;7666;50.920;4.628;2023-03-31T01:13:38;11.90;99.90
15131;DHT22;7666;50.920;4.628;2023-03-31T01:16:26;11.90;99.90
15131;DHT22;7666;50.920;4.628;2023-03-31T01:19:20;11.80;99.90
15131;DHT22;7666;50.920;4.628;2023-03-31T01:28:32;11.70;99.90
15131;DHT22;7666;50.920;4.628;2023-03-31T01:31:32;11.70;99.90
15131;DHT22;7666;50.920;4.628;2023-03-31T01:47:18;11.60;99.90
15131;DHT22;7666;50.920;4.628;2023-03-31T01:50:21;11.60;99.90
15131;DHT22;7666;50.920;4.628;2023-03-31T01:59:16;11.60;99.90
15131;DHT22;7666;50.920;4.628;2023-03-31T02:02:18;11.60;99.90
15131;DHT22;7666;50.920;4.628;2023-03-31T02:05:11;11.50;99.90
15131;DHT22;7666;50.920;4.628;2023-03-31T02:08:37;11.50;99.90
15131;DHT22;7666;50.920;4.628;2023-03-31T02:11:15;11.50;99.90
15131;DHT22;7666;50.920;4.628;2023-03-31T02:14:04;11.50;99.90
15131;DHT22;7666;50.920;4.628;2023-03-31T02:16:55;11.50;99.90
15131;DHT22;7666;50.920;4.628;2023-03-31T02:19:49;11.50;99.90
15131;DHT22;7666;50.920;4.628;2023-03-31T02:22:39;11.40;99.90
15131;DHT22;7666;50.920;4.628;2023-03-31T02:25:37;11.40;99.90
15131;DHT22;7666;50.920;4.628;2023-03-31T02:28:26;11.40;99.90
15131;DHT22;7666;50.920;4.628;2023-03-31T02:34:47;11.30;99.90
15131;DHT22;7666;50.920;4.628;2023-03-31T02:37:33;11.30;99.90
15131;DHT22;7666;50.920;4.628;2023-03-31T02:40:21;11.30;99.90
15131;DHT22;7666;50.920;4.628;2023-03-31T02:43:07;11.30;99.90
15131;DHT22;7666;50.920;4.628;2023-03-31T02:45:53;11.20;99.90
15131;DHT22;7666;50.920;4.628;2023-03-31T02:48:48;11.30;99.90
15131;DHT22;7666;50.920;4.628;2023-03-31T02:51:59;11.20;99.90
15131;DHT22;7666;50.920;4.628;2023-03-31T02:55:16;11.20;99.90
15131;DHT22;7666;50.920;4.628;2023-03-31T02:58:25;11.20;99.90
15131;DHT22;7666;50.920;4.628;2023-03-31T03:07:10;11.30;99.90
15131;DHT22;7666;50.920;4.628;2023-03-31T03:10:19;11.20;99.90
15131;DHT22;7666;50.920;4.628;2023-03-31T03:13:25;11.20;99.90
15131;DHT22;7666;50.920;4.628;2023-03-31T03:16:30;11.20;99.90
15131;DHT22;7666;50.920;4.628;2023-03-31T03:19:21;11.20;99.90
15131;DHT22;7666;50.920;4.628;2023-03-31T03:22:08;11.20;99.90
15131;DHT22;7666;50.920;4.628;2023-03-31T03:24:55;11.20;99.90
15131;DHT22;7666;50.920;4.628;2023-03-31T03:27:41;11.20;99.90
15131;DHT22;7666;50.920;4.628;2023-03-31T03:30:27;11.20;99.90
15131;DHT22;7666;50.920;4.628;2023-03-31T03:33:13;11.20;99.90
15131;DHT22;7666;50.920;4.628;2023-03-31T03:36:01;11.20;99.90
15131;DHT22;7666;50.920;4.628;2023-03-31T03:38:47;11.20;99.90
15131;DHT22;7666;50.920;4.628;2023-03-31T03:41:33;11.20;99.90
15131;DHT22;7666;50.920;4.628;2023-03-31T03:44:19;11.20;99.90
15131;DHT22;7666;50.920;4.628;2023-03-31T03:47:05;11.20;99.90
15131;DHT22;7666;50.920;4.628;2023-03-31T03:49:52;11.10;99.90
15131;DHT22;7666;50.920;4.628;2023-03-31T03:52:38;11.10;99.90
15131;DHT22;7666;50.920;4.628;2023-03-31T03:55:24;11.10;99.90
15131;DHT22;7666;50.920;4.628;2023-03-31T03:58:10;11.10;99.90
15131;DHT22;7666;50.920;4.628;2023-03-31T04:00:56;11.10;99.90
15131;DHT22;7666;50.920;4.628;2023-03-31T04:03:43;11.10;99.90
15131;DHT22;7666;50.920;4.628;2023-03-31T04:06:29;11.10;99.90
15131;DHT22;7666;50.920;4.628;2023-03-31T04:09:15;11.00;99.90
15131;DHT22;7666;50.920;4.628;2023-03-31T04:12:02;11.00;99.90
15131;DHT22;7666;50.920;4.628;2023-03-31T04:14:48;11.00;99.90
15131;DHT22;7666;50.920;4.628;2023-03-31T04:17:34;10.90;99.90
15131;DHT22;7666;50.920;4.628;2023-03-31T04:20:21;10.90;99.90
15131;DHT22;7666;50.920;4.628;2023-03-31T04:23:12;10.80;99.90
15131;DHT22;7666;50.920;4.628;2023-03-31T04:25:59;10.80;99.90
15131;DHT22;7666;50.920;4.628;2023-03-31T04:28:47;10.80;99.90
15131;DHT22;7666;50.920;4.628;2023-03-31T04:31:35;10.80;99.90
15131;DHT22;7666;50.920;4.628;2023-03-31T04:34:24;10.80;99.90
15131;DHT22;7666;50.920;4.628;2023-03-31T04:37:11;10.80;99.90
15131;DHT22;7666;50.920;4.628;2023-03-31T04:39:57;10.80;99.90
15131;DHT22;7666;50.920;4.628;2023-03-31T04:42:47;10.70;99.90
15131;DHT22;7666;50.920;4.628;2023-03-31T04:45:33;10.70;99.90
15131;DHT22;7666;50.920;4.628;2023-03-31T04:48:19;10.70;99.90
15131;DHT22;7666;50.920;4.628;2023-03-31T04:51:06;10.70;99.90
15131;DHT22;7666;50.920;4.628;2023-03-31T04:53:52;10.80;99.90
15131;DHT22;7666;50.920;4.628;2023-03-31T04:56:38;10.80;99.90
15131;DHT22;7666;50.920;4.628;2023-03-31T04:59:24;10.80;99.90
15131;DHT22;7666;50.920;4.628;2023-03-31T05:02:10;10.90;99.90
15131;DHT22;7666;50.920;4.628;2023-03-31T05:04:56;10.90;99.90
15131;DHT22;7666;50.920;4.628;2023-03-31T05:07:42;10.90;99.90
15131;DHT22;7666;50.920;4.628;2023-03-31T05:10:29;10.90;99.90
15131;DHT22;7666;50.920;4.628;2023-03-31T05:13:15;11.00;99.90
15131;DHT22;7666;50.920;4.628;2023-03-31T05:16:09;11.00;99.90
15131;DHT22;7666;50.920;4.628;2023-03-31T05:18:55;11.00;99.90
15131;DHT22;7666;50.920;4.628;2023-03-31T05:21:41;11.10;99.90
15131;DHT22;7666;50.920;4.628;2023-03-31T05:24:27;11.10;99.90
15131;DHT22;7666;50.920;4.628;2023-03-31T05:27:15;11.10;99.90
15131;DHT22;7666;50.920;4.628;2023-03-31T05:30:02;11.10;99.90
15131;DHT22;7666;50.920;4.628;2023-03-31T05:32:49;11.20;99.90
15131;DHT22;7666;50.920;4.628;2023-03-31T05:35:35;11.10;99.90
15131;DHT22;7666;50.920;4.628;2023-03-31T05:38:21;11.20;99.90
15131;DHT22;7666;50.920;4.628;2023-03-31T05:41:08;11.10;99.90
15131;DHT22;7666;50.920;4.628;2023-03-31T05:43:55;11.10;99.90
15131;DHT22;7666;50.920;4.628;2023-03-31T05:46:41;11.10;99.90
15131;DHT22;7666;50.920;4.628;2023-03-31T05:49:27;11.20;99.90
15131;DHT22;7666;50.920;4.628;2023-03-31T05:52:14;11.20;99.90
15131;DHT22;7666;50.920;4.628;2023-03-31T05:55:00;11.20;99.90
15131;DHT22;7666;50.920;4.628;2023-03-31T05:57:46;11.20;99.90
15131;DHT22;7666;50.920;4.628;2023-03-31T06:00:32;11.20;99.90
15131;DHT22;7666;50.920;4.628;2023-03-31T06:03:18;11.20;99.90
15131;DHT22;7666;50.920;4.628;2023-03-31T06:06:04;11.20;99.90
15131;DHT22;7666;50.920;4.628;2023-03-31T06:08:51;11.20;99.90
15131;DHT22;7666;50.920;4.628;2023-03-31T06:11:37;11.30;99.90
15131;DHT22;7666;50.920;4.628;2023-03-31T06:14:23;11.30;99.90
15131;DHT22;7666;50.920;4.628;2023-03-31T06:17:09;11.30;99.90
15131;DHT22;7666;50.920;4.628;2023-03-31T06:19:55;11.30;99.90
15131;DHT22;7666;50.920;4.628;2023-03-31T06:22:41;11.40;99.90
15131;DHT22;7666;50.920;4.628;2023-03-31T06:25:28;11.40;99.90
15131;DHT22;7666;50.920;4.628;2023-03-31T06:28:14;11.50;99.90
15131;DHT22;7666;50.920;4.628;2023-03-31T06:31:14;11.40;99.90
15131;DHT22;7666;50.920;4.628;2023-03-31T06:34:00;11.50;99.90
15131;DHT22;7666;50.920;4.628;2023-03-31T06:36:46;11.50;99.90
15131;DHT22;7666;50.920;4.628;2023-03-31T06:39:32;11.50;99.90
15131;DHT22;7666;50.920;4.628;2023-03-31T06:42:18;11.60;99.90
15131;DHT22;7666;50.920;4.628;2023-03-31T06:45:05;11.60;99.90
15131;DHT22;7666;50.920;4.628;2023-03-31T06:47:51;11.70;99.90
15131;DHT22;7666;50.920;4.628;2023-03-31T06:50:38;11.70;99.90
15131;DHT22;7666;50.920;4.628;2023-03-31T06:53:26;11.70;99.90
15131;DHT22;7666;50.920;4.628;2023-03-31T06:56:12;11.80;99.90
15131;DHT22;7666;50.920;4.628;2023-03-31T06:58:58;11.90;99.90
15131;DHT22;7666;50.920;4.628;2023-03-31T07:01:44;11.90;99.90
15131;DHT22;7666;50.920;4.628;2023-03-31T07:04:30;12.00;99.90
15131;DHT22;7666;50.920;4.628;2023-03-31T07:07:16;12.10;99.90
15131;DHT22;7666;50.920;4.628;2023-03-31T07:10:02;12.30;99.90
15131;DHT22;7666;50.920;4.628;2023-03-31T07:12:49;12.40;99.90
15131;DHT22;7666;50.920;4.628;2023-03-31T07:15:35;12.50;99.90
15131;DHT22;7666;50.920;4.628;2023-03-31T07:18:21;12.50;99.90
15131;DHT22;7666;50.920;4.628;2023-03-31T07:21:10;12.60;99.90
15131;DHT22;7666;50.920;4.628;2023-03-31T07:23:57;12.60;99.90
15131;DHT22;7666;50.920;4.628;2023-03-31T07:26:43;12.50;99.90
15131;DHT22;7666;50.920;4.628;2023-03-31T07:29:29;12.50;99.90
15131;DHT22;7666;50.920;4.628;2023-03-31T07:32:15;12.50;99.90
15131;DHT22;7666;50.920;4.628;2023-03-31T07:35:00;12.50;99.90
15131;DHT22;7666;50.920;4.628;2023-03-31T07:37:47;12.50;99.90
15131;DHT22;7666;50.920;4.628;2023-03-31T07:40:34;12.50;99.90
15131;DHT22;7666;50.920;4.628;2023-03-31T07:43:21;12.50;99.90
15131;DHT22;7666;50.920;4.628;2023-03-31T07:46:17;12.40;99.90
15131;DHT22;7666;50.920;4.628;2023-03-31T07:49:03;12.50;99.90
15131;DHT22;7666;50.920;4.628;2023-03-31T07:51:49;12.50;99.90
15131;DHT22;7666;50.920;4.628;2023-03-31T07:54:35;12.50;99.90
15131;DHT22;7666;50.920;4.628;2023-03-31T07:57:21;12.40;99.90
15131;DHT22;7666;50.920;4.628;2023-03-31T08:00:09;12.30;99.90
15131;DHT22;7666;50.920;4.628;2023-03-31T08:02:57;12.30;99.90
15131;DHT22;7666;50.920;4.628;2023-03-31T08:05:43;12.20;99.90
15131;DHT22;7666;50.920;4.628;2023-03-31T08:08:29;12.20;99.90
15131;DHT22;7666;50.920;4.628;2023-03-31T08:11:15;12.20;99.90
15131;DHT22;7666;50.920;4.628;2023-03-31T08:14:02;12.20;99.90
15131;DHT22;7666;50.920;4.628;2023-03-31T08:16:47;12.20;99.90
15131;DHT22;7666;50.920;4.628;2023-03-31T08:19:34;12.20;99.90
15131;DHT22;7666;50.920;4.628;2023-03-31T08:22:20;12.20;99.90
15131;DHT22;7666;50.920;4.628;2023-03-31T08:25:08;12.20;99.90
15131;DHT22;7666;50.920;4.628;2023-03-31T08:27:54;12.30;99.90
15131;DHT22;7666;50.920;4.628;2023-03-31T08:30:41;12.40;99.90
15131;DHT22;7666;50.920;4.628;2023-03-31T08:33:27;12.50;99.90
15131;DHT22;7666;50.920;4.628;2023-03-31T08:36:13;12.60;99.90
15131;DHT22;7666;50.920;4.628;2023-03-31T08:38:59;12.60;99.90
15131;DHT22;7666;50.920;4.628;2023-03-31T08:42:02;12.60;99.90
15131;DHT22;7666;50.920;4.628;2023-03-31T08:45:21;12.60;99.90
15131;DHT22;7666;50.920;4.628;2023-03-31T08:48:26;12.60;99.90
15131;DHT22;7666;50.920;4.628;2023-03-31T08:54:08;12.70;99.90
15131;DHT22;7666;50.920;4.628;2023-03-31T08:56:56;12.70;99.90
15131;DHT22;7666;50.920;4.628;2023-03-31T08:59:42;12.60;99.90
15131;DHT22;7666;50.920;4.628;2023-03-31T09:02:39;12.60;99.90
15131;DHT22;7666;50.920;4.628;2023-03-31T09:08:37;12.70;99.90
15131;DHT22;7666;50.920;4.628;2023-03-31T09:11:49;12.90;99.90
15131;DHT22;7666;50.920;4.628;2023-03-31T09:14:40;13.10;99.90
15131;DHT22;7666;50.920;4.628;2023-03-31T09:17:33;13.10;99.90
15131;DHT22;7666;50.920;4.628;2023-03-31T09:20:31;13.10;99.90
15131;DHT22;7666;50.920;4.628;2023-03-31T09:26:57;12.90;99.90
15131;DHT22;7666;50.920;4.628;2023-03-31T09:30:10;12.80;99.90
15131;DHT22;7666;50.920;4.628;2023-03-31T09:33:15;12.80;99.90
15131;DHT22;7666;50.920;4.628;2023-03-31T09:36:11;12.80;99.90
15131;DHT22;7666;50.920;4.628;2023-03-31T09:38:58;12.90;99.90
15131;DHT22;7666;50.920;4.628;2023-03-31T09:41:46;13.20;99.90
15131;DHT22;7666;50.920;4.628;2023-03-31T09:44:45;13.30;99.90
15131;DHT22;7666;50.920;4.628;2023-03-31T09:47:38;13.50;99.90
15131;DHT22;7666;50.920;4.628;2023-03-31T09:50:28;13.60;99.90
15131;DHT22;7666;50.920;4.628;2023-03-31T09:53:26;13.60;99.90
15131;DHT22;7666;50.920;4.628;2023-03-31T09:59:33;13.70;99.90
15131;DHT22;7666;50.920;4.628;2023-03-31T10:05:33;13.80;99.90
15131;DHT22;7666;50.920;4.628;2023-03-31T10:08:36;13.60;99.90
15131;DHT22;7666;50.920;4.628;2023-03-31T10:11:23;13.50;99.90
15131;DHT22;7666;50.920;4.628;2023-03-31T10:14:15;13.40;99.90
15131;DHT22;7666;50.920;4.628;2023-03-31T10:17:05;13.30;99.90
15131;DHT22;7666;50.920;4.628;2023-03-31T10:19:57;13.40;99.90
15131;DHT22;7666;50.920;4.628;2023-03-31T10:22:44;13.30;99.90
15131;DHT22;7666;50.920;4.628;2023-03-31T10:25:32;13.40;99.90
15131;DHT22;7666;50.920;4.628;2023-03-31T10:28:19;13.50;99.90
15131;DHT22;7666;50.920;4.628;2023-03-31T10:31:06;13.60;99.90
15131;DHT22;7666;50.920;4.628;2023-03-31T10:33:53;13.80;99.90
15131;DHT22;7666;50.920;4.628;2023-03-31T10:36:47;13.80;99.90
15131;DHT22;7666;50.920;4.628;2023-03-31T10:39:33;13.70;99.90
15131;DHT22;7666;50.920;4.628;2023-03-31T10:42:21;13.70;99.90
15131;DHT22;7666;50.920;4.628;2023-03-31T10:45:28;13.70;99.90
15131;DHT22;7666;50.920;4.628;2023-03-31T10:48:23;13.60;99.90
15131;DHT22;7666;50.920;4.628;2023-03-31T10:51:11;13.60;99.90
15131;DHT22;7666;50.920;4.628;2023-03-31T10:54:00;13.60;99.90
15131;DHT22;7666;50.920;4.628;2023-03-31T10:56:55;13.60;99.90
15131;DHT22;7666;50.920;4.628;2023-03-31T11:00:34;13.60;99.90
15131;DHT22;7666;50.920;4.628;2023-03-31T11:03:37;13.70;99.90
15131;DHT22;7666;50.920;4.628;2023-03-31T11:10:16;13.70;99.90
15131;DHT22;7666;50.920;4.628;2023-03-31T11:22:43;13.30;99.90
15131;DHT22;7666;50.920;4.628;2023-03-31T11:29:05;13.20;99.90
15131;DHT22;7666;50.920;4.628;2023-03-31T11:35:31;13.30;99.90
15131;DHT22;7666;50.920;4.628;2023-03-31T11:38:54;13.30;99.90
15131;DHT22;7666;50.920;4.628;2023-03-31T11:41:54;13.50;99.90
15131;DHT22;7666;50.920;4.628;2023-03-31T11:44:49;13.50;99.90
15131;DHT22;7666;50.920;4.628;2023-03-31T11:47:39;13.60;99.90
15131;DHT22;7666;50.920;4.628;2023-03-31T11:50:32;13.80;99.90
15131;DHT22;7666;50.920;4.628;2023-03-31T11:53:26;13.90;99.90
15131;DHT22;7666;50.920;4.628;2023-03-31T11:56:15;14.00;99.90
15131;DHT22;7666;50.920;4.628;2023-03-31T11:59:03;14.00;99.90
15131;DHT22;7666;50.920;4.628;2023-03-31T12:02:09;13.90;99.90
15131;DHT22;7666;50.920;4.628;2023-03-31T12:04:59;13.90;99.90
15131;DHT22;7666;50.920;4.628;2023-03-31T12:08:15;13.90;99.90
15131;DHT22;7666;50.920;4.628;2023-03-31T12:11:15;13.80;99.90
15131;DHT22;7666;50.920;4.628;2023-03-31T12:17:12;13.50;99.90
15131;DHT22;7666;50.920;4.628;2023-03-31T12:20:02;13.40;99.90
15131;DHT22;7666;50.920;4.628;2023-03-31T12:22:57;13.20;99.90
15131;DHT22;7666;50.920;4.628;2023-03-31T12:26:20;13.10;99.90
15131;DHT22;7666;50.920;4.628;2023-03-31T12:29:28;13.00;99.90
15131;DHT22;7666;50.920;4.628;2023-03-31T12:32:22;12.90;99.90
15131;DHT22;7666;50.920;4.628;2023-03-31T12:41:42;12.80;99.90
15131;DHT22;7666;50.920;4.628;2023-03-31T12:51:17;12.80;99.90
15131;DHT22;7666;50.920;4.628;2023-03-31T12:57:24;12.80;99.90
15131;DHT22;7666;50.920;4.628;2023-03-31T13:00:25;13.00;99.90
15131;DHT22;7666;50.920;4.628;2023-03-31T13:12:11;13.10;99.90
15131;DHT22;7666;50.920;4.628;2023-03-31T13:14:58;13.10;99.90
15131;DHT22;7666;50.920;4.628;2023-03-31T13:18:04;13.20;99.90
15131;DHT22;7666;50.920;4.628;2023-03-31T13:20:59;13.20;99.90
15131;DHT22;7666;50.920;4.628;2023-03-31T13:23:45;13.20;99.90
15131;DHT22;7666;50.920;4.628;2023-03-31T13:26:37;13.30;99.90
15131;DHT22;7666;50.920;4.628;2023-03-31T13:29:37;13.30;99.90
15131;DHT22;7666;50.920;4.628;2023-03-31T13:32:25;13.30;99.90
15131;DHT22;7666;50.920;4.628;2023-03-31T13:35:20;13.20;99.90
15131;DHT22;7666;50.920;4.628;2023-03-31T13:44:45;12.80;99.90
15131;DHT22;7666;50.920;4.628;2023-03-31T13:47:48;12.80;99.90
15131;DHT22;7666;50.920;4.628;2023-03-31T14:00:45;12.70;99.90
15131;DHT22;7666;50.920;4.628;2023-03-31T14:06:51;12.50;99.90
15131;DHT22;7666;50.920;4.628;2023-03-31T14:09:41;12.50;99.90
15131;DHT22;7666;50.920;4.628;2023-03-31T14:12:32;12.40;99.90
15131;DHT22;7666;50.920;4.628;2023-03-31T14:15:20;12.40;99.90
15131;DHT22;7666;50.920;4.628;2023-03-31T14:18:06;12.40;99.90
15131;DHT22;7666;50.920;4.628;2023-03-31T14:21:33;12.30;99.90
15131;DHT22;7666;50.920;4.628;2023-03-31T14:24:25;12.20;99.90
15131;DHT22;7666;50.920;4.628;2023-03-31T14:30:46;12.10;99.90
15131;DHT22;7666;50.920;4.628;2023-03-31T14:33:58;12.20;99.90
15131;DHT22;7666;50.920;4.628;2023-03-31T14:37:06;12.30;99.90
15131;DHT22;7666;50.920;4.628;2023-03-31T14:39:57;12.40;99.90
15131;DHT22;7666;50.920;4.628;2023-03-31T14:42:44;12.50;99.90
15131;DHT22;7666;50.920;4.628;2023-03-31T14:45:34;12.50;99.90
15131;DHT22;7666;50.920;4.628;2023-03-31T14:48:20;12.50;99.90
15131;DHT22;7666;50.920;4.628;2023-03-31T14:51:08;12.50;99.90
15131;DHT22;7666;50.920;4.628;2023-03-31T14:54:00;12.50;99.90
15131;DHT22;7666;50.920;4.628;2023-03-31T14:56:49;12.50;99.90
15131;DHT22;7666;50.920;4.628;2023-03-31T14:59:37;12.60;99.90
15131;DHT22;7666;50.920;4.628;2023-03-31T15:02:32;12.60;99.90
15131;DHT22;7666;50.920;4.628;2023-03-31T15:05:30;12.60;99.90
15131;DHT22;7666;50.920;4.628;2023-03-31T15:08:19;12.50;99.90
15131;DHT22;7666;50.920;4.628;2023-03-31T15:11:11;12.50;99.90
15131;DHT22;7666;50.920;4.628;2023-03-31T15:13:59;12.50;99.90
15131;DHT22;7666;50.920;4.628;2023-03-31T15:16:45;12.50;99.90
15131;DHT22;7666;50.920;4.628;2023-03-31T15:19:34;12.50;99.90
15131;DHT22;7666;50.920;4.628;2023-03-31T15:22:25;12.40;99.90
15131;DHT22;7666;50.920;4.628;2023-03-31T15:25:13;12.30;99.90
15131;DHT22;7666;50.920;4.628;2023-03-31T15:28:07;12.30;99.90
15131;DHT22;7666;50.920;4.628;2023-03-31T15:30:55;12.20;99.90
15131;DHT22;7666;50.920;4.628;2023-03-31T15:33:41;12.30;99.90
15131;DHT22;7666;50.920;4.628;2023-03-31T15:36:31;12.30;99.90
15131;DHT22;7666;50.920;4.628;2023-03-31T15:39:17;12.30;99.90
15131;DHT22;7666;50.920;4.628;2023-03-31T15:42:04;12.30;99.90
15131;DHT22;7666;50.920;4.628;2023-03-31T15:48:25;12.30;99.90
15131;DHT22;7666;50.920;4.628;2023-03-31T15:53:59;12.30;99.90
15131;DHT22;7666;50.920;4.628;2023-03-31T15:56:45;12.30;99.90
15131;DHT22;7666;50.920;4.628;2023-03-31T15:59:47;12.30;99.90
15131;DHT22;7666;50.920;4.628;2023-03-31T16:02:41;12.30;99.90
15131;DHT22;7666;50.920;4.628;2023-03-31T16:05:52;12.20;99.90
15131;DHT22;7666;50.920;4.628;2023-03-31T16:09:43;12.20;99.90
15131;DHT22;7666;50.920;4.628;2023-03-31T16:11:59;12.20;99.90
15131;DHT22;7666;50.920;4.628;2023-03-31T16:15:09;12.20;99.90
15131;DHT22;7666;50.920;4.628;2023-03-31T16:18:04;12.20;99.90
15131;DHT22;7666;50.920;4.628;2023-03-31T16:20:57;12.20;99.90
15131;DHT22;7666;50.920;4.628;2023-03-31T16:23:51;12.10;99.90
15131;DHT22;7666;50.920;4.628;2023-03-31T16:26:38;12.10;99.90
15131;DHT22;7666;50.920;4.628;2023-03-31T16:29:25;12.00;99.90
15131;DHT22;7666;50.920;4.628;2023-03-31T16:32:14;12.00;99.90
15131;DHT22;7666;50.920;4.628;2023-03-31T16:35:02;11.90;99.90
15131;DHT22;7666;50.920;4.628;2023-03-31T16:37:53;11.80;99.90
15131;DHT22;7666;50.920;4.628;2023-03-31T16:40:41;11.80;99.90
15131;DHT22;7666;50.920;4.628;2023-03-31T16:43:28;11.70;99.90
15131;DHT22;7666;50.920;4.628;2023-03-31T16:46:19;11.70;99.90
15131;DHT22;7666;50.920;4.628;2023-03-31T16:49:06;11.60;99.90
15131;DHT22;7666;50.920;4.628;2023-03-31T16:51:52;11.50;99.90
15131;DHT22;7666;50.920;4.628;2023-03-31T16:54:38;11.50;99.90
15131;DHT22;7666;50.920;4.628;2023-03-31T16:57:24;11.50;99.90
15131;DHT22;7666;50.920;4.628;2023-03-31T17:00:11;11.50;99.90
15131;DHT22;7666;50.920;4.628;2023-03-31T17:02:57;11.50;99.90
15131;DHT22;7666;50.920;4.628;2023-03-31T17:05:47;11.50;99.90
15131;DHT22;7666;50.920;4.628;2023-03-31T17:08:36;11.50;99.90
15131;DHT22;7666;50.920;4.628;2023-03-31T17:11:23;11.50;99.90
15131;DHT22;7666;50.920;4.628;2023-03-31T17:14:09;11.40;99.90
15131;DHT22;7666;50.920;4.628;2023-03-31T17:16:55;11.40;99.90
15131;DHT22;7666;50.920;4.628;2023-03-31T17:19:42;11.40;99.90
15131;DHT22;7666;50.920;4.628;2023-03-31T17:22:28;11.40;99.90
15131;DHT22;7666;50.920;4.628;2023-03-31T17:25:14;11.40;99.90
15131;DHT22;7666;50.920;4.628;2023-03-31T17:28:02;11.40;99.90
15131;DHT22;7666;50.920;4.628;2023-03-31T17:30:48;11.40;99.90
15131;DHT22;7666;50.920;4.628;2023-03-31T17:33:35;11.40;99.90
15131;DHT22;7666;50.920;4.628;2023-03-31T17:36:21;11.40;99.90
15131;DHT22;7666;50.920;4.628;2023-03-31T17:39:07;11.30;99.90
15131;DHT22;7666;50.920;4.628;2023-03-31T17:41:53;11.30;99.90
15131;DHT22;7666;50.920;4.628;2023-03-31T17:44:39;11.40;99.90
15131;DHT22;7666;50.920;4.628;2023-03-31T17:47:26;11.30;99.90
15131;DHT22;7666;50.920;4.628;2023-03-31T17:50:12;11.30;99.90
15131;DHT22;7666;50.920;4.628;2023-03-31T17:52:58;11.20;99.90
15131;DHT22;7666;50.920;4.628;2023-03-31T17:55:44;11.10;99.90
15131;DHT22;7666;50.920;4.628;2023-03-31T17:58:31;11.10;99.90
15131;DHT22;7666;50.920;4.628;2023-03-31T18:01:17;11.00;99.90
15131;DHT22;7666;50.920;4.628;2023-03-31T18:04:03;11.00;99.90
15131;DHT22;7666;50.920;4.628;2023-03-31T18:06:49;11.00;99.90
15131;DHT22;7666;50.920;4.628;2023-03-31T18:09:36;10.90;99.90
15131;DHT22;7666;50.920;4.628;2023-03-31T18:12:22;10.90;99.90
15131;DHT22;7666;50.920;4.628;2023-03-31T18:15:08;10.90;99.90
15131;DHT22;7666;50.920;4.628;2023-03-31T18:17:55;10.80;99.90
15131;DHT22;7666;50.920;4.628;2023-03-31T18:20:41;10.80;99.90
15131;DHT22;7666;50.920;4.628;2023-03-31T18:23:27;10.80;99.90
15131;DHT22;7666;50.920;4.628;2023-03-31T18:26:13;10.80;99.90
15131;DHT22;7666;50.920;4.628;2023-03-31T18:28:59;10.80;99.90
15131;DHT22;7666;50.920;4.628;2023-03-31T18:31:45;10.80;99.90
15131;DHT22;7666;50.920;4.628;2023-03-31T18:34:31;10.80;99.90
15131;DHT22;7666;50.920;4.628;2023-03-31T18:37:18;10.70;99.90
15131;DHT22;7666;50.920;4.628;2023-03-31T18:40:04;10.70;99.90
15131;DHT22;7666;50.920;4.628;2023-03-31T18:42:51;10.70;99.90
15131;DHT22;7666;50.920;4.628;2023-03-31T18:45:37;10.70;99.90
15131;DHT22;7666;50.920;4.628;2023-03-31T18:48:23;10.70;99.90
15131;DHT22;7666;50.920;4.628;2023-03-31T18:51:10;10.70;99.90
15131;DHT22;7666;50.920;4.628;2023-03-31T18:53:56;10.70;99.90
15131;DHT22;7666;50.920;4.628;2023-03-31T18:56:42;10.70;99.90
15131;DHT22;7666;50.920;4.628;2023-03-31T18:59:28;10.70;99.90
15131;DHT22;7666;50.920;4.628;2023-03-31T19:02:15;10.70;99.90
15131;DHT22;7666;50.920;4.628;2023-03-31T19:05:02;10.60;99.90
15131;DHT22;7666;50.920;4.628;2023-03-31T19:07:48;10.70;99.90
15131;DHT22;7666;50.920;4.628;2023-03-31T19:10:35;10.70;99.90
15131;DHT22;7666;50.920;4.628;2023-03-31T19:13:21;10.70;99.90
15131;DHT22;7666;50.920;4.628;2023-03-31T19:16:11;10.70;99.90
15131;DHT22;7666;50.920;4.628;2023-03-31T19:18:58;10.70;99.90
15131;DHT22;7666;50.920;4.628;2023-03-31T19:21:44;10.70;99.90
15131;DHT22;7666;50.920;4.628;2023-03-31T19:24:30;10.70;99.90
15131;DHT22;7666;50.920;4.628;2023-03-31T19:27:16;10.80;99.90
15131;DHT22;7666;50.920;4.628;2023-03-31T19:30:03;10.70;99.90
15131;DHT22;7666;50.920;4.628;2023-03-31T19:32:50;10.70;99.90
15131;DHT22;7666;50.920;4.628;2023-03-31T19:35:40;10.70;99.90
15131;DHT22;7666;50.920;4.628;2023-03-31T19:38:27;10.70;99.90
15131;DHT22;7666;50.920;4.628;2023-03-31T19:41:16;10.70;99.90
15131;DHT22;7666;50.920;4.628;2023-03-31T19:44:03;10.60;99.90
15131;DHT22;7666;50.920;4.628;2023-03-31T19:46:49;10.60;99.90
15131;DHT22;7666;50.920;4.628;2023-03-31T19:49:35;10.60;99.90
15131;DHT22;7666;50.920;4.628;2023-03-31T19:52:21;10.70;99.90
15131;DHT22;7666;50.920;4.628;2023-03-31T19:55:07;10.60;99.90
15131;DHT22;7666;50.920;4.628;2023-03-31T19:57:53;10.60;99.90
15131;DHT22;7666;50.920;4.628;2023-03-31T20:00:39;10.60;99.90
15131;DHT22;7666;50.920;4.628;2023-03-31T20:03:25;10.60;99.90
15131;DHT22;7666;50.920;4.628;2023-03-31T20:06:13;10.60;99.90
15131;DHT22;7666;50.920;4.628;2023-03-31T20:09:00;10.60;99.90
15131;DHT22;7666;50.920;4.628;2023-03-31T20:11:46;10.60;99.90
15131;DHT22;7666;50.920;4.628;2023-03-31T20:14:32;10.60;99.90
15131;DHT22;7666;50.920;4.628;2023-03-31T20:17:19;10.60;99.90
15131;DHT22;7666;50.920;4.628;2023-03-31T20:20:05;10.60;99.90